Terminal Aerodrome Forecast
Issued by NWS Wilmington, NC

Home | Current Version | Previous Version | Text Only | Print | Product List | Glossary On
Versions: 1 2 3 4 5 6 7 8 9 10 11 12
544
FTUS42 KILM 031127
TAFLBT
TAF
KLBT 031127Z 0312/0412 32002KT P6SM FEW120 SCT250
      TEMPO 0312/0314 36009G15KT
     FM031400 36008KT P6SM FEW150 SCT250
     FM040000 00000KT P6SM SCT150 BKN250
     FM040900 05002KT P6SM OVC050=

USA.gov is the U.S. government's official web portal to all federal, state and local government web resources and services.